Time;durP1;ratioP1;P1;durP2;ratioP2;P2;SDS_P1;SDS_P2;PMS_P1;PMS_P2;Temp;Humidity;BMP_temperature;BMP_pressure;BME280_temperature;BME280_humidity;BME280_pressure;Samples;Min_cycle;Max_cycle;Signal;HPM_P1;HPM_P2
2023/03/14 00:00:56;;;;;;;14.60;10.73;;;11.20;99.90;;;;;;4970792;28;20050;-76
2023/03/14 00:03:22;;;;;;;18.15;10.77;;;11.10;99.90;;;;;;4965345;28;20046;-78
2023/03/14 00:05:47;;;;;;;14.95;10.15;;;11.00;99.90;;;;;;4984173;28;20602;-76
2023/03/14 00:08:13;;;;;;;17.55;10.32;;;10.90;99.90;;;;;;4978117;28;20030;-77
2023/03/14 00:10:39;;;;;;;20.88;12.15;;;11.00;99.90;;;;;;4981195;28;20065;-78
2023/03/14 00:13:05;;;;;;;17.63;10.75;;;10.80;99.90;;;;;;4980214;28;20031;-76
2023/03/14 00:15:33;;;;;;;18.20;11.18;;;10.70;99.90;;;;;;4980152;28;20443;-77
2023/03/14 00:17:59;;;;;;;21.80;12.20;;;10.60;99.90;;;;;;4981590;28;20034;-77
2023/03/14 00:20:24;;;;;;;17.08;12.38;;;10.50;99.90;;;;;;4974853;28;20030;-77
2023/03/14 00:22:50;;;;;;;18.85;11.25;;;10.40;99.90;;;;;;4977912;28;20023;-76
2023/03/14 00:25:16;;;;;;;20.00;12.38;;;10.30;99.90;;;;;;4970839;28;20050;-76
2023/03/14 00:27:41;;;;;;;16.95;11.70;;;10.30;99.90;;;;;;4972821;28;20080;-77
2023/03/14 00:30:08;;;;;;;19.08;11.50;;;10.30;99.90;;;;;;4978653;28;20382;-76
2023/03/14 00:32:34;;;;;;;18.83;12.23;;;10.30;99.90;;;;;;4977568;28;20023;-77
2023/03/14 00:35:00;;;;;;;18.75;11.90;;;10.30;99.90;;;;;;4976777;28;20041;-77
2023/03/14 00:37:26;;;;;;;19.25;12.13;;;10.20;99.90;;;;;;4976158;28;20030;-76
2023/03/14 00:39:52;;;;;;;19.27;12.55;;;10.30;99.90;;;;;;4976568;28;20501;-76
2023/03/14 00:42:18;;;;;;;21.88;13.05;;;10.20;99.90;;;;;;4984259;28;20033;-76
2023/03/14 00:44:43;;;;;;;19.02;13.02;;;10.30;99.90;;;;;;4981278;28;20437;-77
2023/03/14 00:47:09;;;;;;;17.58;11.13;;;10.30;99.90;;;;;;4973897;28;20397;-76
2023/03/14 00:49:35;;;;;;;18.38;12.90;;;10.00;99.90;;;;;;4971029;28;20034;-76
2023/03/14 00:52:00;;;;;;;20.77;12.48;;;10.00;99.90;;;;;;4969642;28;20034;-76
2023/03/14 00:54:26;;;;;;;19.80;13.27;;;10.00;99.90;;;;;;4970577;28;20078;-76
2023/03/14 00:56:52;;;;;;;20.60;12.77;;;10.00;99.90;;;;;;4976717;28;20027;-77
2023/03/14 00:59:18;;;;;;;20.58;12.90;;;10.00;99.90;;;;;;4977387;28;20041;-77
2023/03/14 01:01:44;;;;;;;24.88;13.85;;;9.90;99.90;;;;;;4977486;28;20051;-76
2023/03/14 01:04:10;;;;;;;18.83;13.07;;;9.80;99.90;;;;;;4979348;28;20038;-77
2023/03/14 01:06:36;;;;;;;20.80;12.98;;;9.80;99.90;;;;;;4981552;28;20142;-77
2023/03/14 01:09:02;;;;;;;21.38;13.25;;;9.70;99.90;;;;;;4982139;28;20462;-76
2023/03/14 01:11:30;;;;;;;19.88;12.80;;;9.80;99.90;;;;;;4976959;28;20382;-76
2023/03/14 01:13:56;;;;;;;18.30;11.73;;;9.50;99.90;;;;;;4977237;28;20484;-76
2023/03/14 01:16:24;;;;;;;20.52;12.63;;;9.60;99.90;;;;;;4977547;28;20062;-77
2023/03/14 01:18:50;;;;;;;19.20;12.77;;;9.60;99.90;;;;;;4981262;28;20062;-77
2023/03/14 01:21:25;;;;;;;17.98;11.57;;;9.60;99.90;;;;;;4974786;28;20026;-77
2023/03/14 01:23:52;;;;;;;17.88;11.70;;;9.50;99.90;;;;;;4984325;28;20026;-76
2023/03/14 01:26:21;;;;;;;16.77;11.48;;;9.40;99.90;;;;;;4982677;28;20041;-76
2023/03/14 01:28:47;;;;;;;18.27;10.38;;;9.40;99.90;;;;;;4970560;28;20019;-76
2023/03/14 01:31:13;;;;;;;20.23;11.45;;;9.40;99.90;;;;;;4982667;28;20036;-76
2023/03/14 01:33:40;;;;;;;15.93;11.57;;;9.60;99.90;;;;;;4975234;28;20106;-77
2023/03/14 01:36:06;;;;;;;14.98;10.40;;;9.70;99.90;;;;;;4977146;28;20049;-76
2023/03/14 01:38:34;;;;;;;19.23;11.13;;;9.50;99.90;;;;;;4981972;28;20030;-77
2023/03/14 01:41:00;;;;;;;16.75;9.95;;;9.50;99.90;;;;;;4977273;28;20454;-76
2023/03/14 01:43:26;;;;;;;19.13;11.25;;;9.50;99.90;;;;;;4970340;28;20448;-77
2023/03/14 01:46:18;;;;;;;16.55;11.35;;;9.60;99.90;;;;;;4979064;28;20117;-77
2023/03/14 01:48:57;;;;;;;16.20;9.68;;;9.40;99.90;;;;;;4978333;28;20037;-76
2023/03/14 01:51:28;;;;;;;20.27;11.05;;;9.40;99.90;;;;;;4977262;28;20042;-76
2023/03/14 01:54:01;;;;;;;19.70;10.00;;;9.50;99.90;;;;;;4973293;28;20031;-76
2023/03/14 01:56:26;;;;;;;17.67;10.50;;;9.40;99.90;;;;;;4979301;28;20033;-76
2023/03/14 01:58:53;;;;;;;14.95;9.80;;;9.50;99.90;;;;;;4977673;28;20038;-76
2023/03/14 02:01:21;;;;;;;17.17;11.48;;;9.30;99.90;;;;;;4974167;28;20130;-76
2023/03/14 02:03:53;;;;;;;16.48;10.30;;;9.30;99.90;;;;;;4991560;28;20031;-77
2023/03/14 02:06:27;;;;;;;15.82;9.98;;;9.30;99.90;;;;;;4979966;28;20485;-76
2023/03/14 02:08:52;;;;;;;16.88;10.90;;;9.30;99.90;;;;;;4983755;28;20496;-76
2023/03/14 02:11:18;;;;;;;16.52;8.90;;;9.30;99.90;;;;;;4981176;28;20193;-81
2023/03/14 02:13:45;;;;;;;18.48;10.13;;;9.40;99.90;;;;;;4984265;28;20117;-76
2023/03/14 02:16:11;;;;;;;14.85;9.80;;;9.30;99.90;;;;;;4988174;28;20034;-76
2023/03/14 02:18:37;;;;;;;13.73;8.80;;;9.40;99.90;;;;;;4976974;28;20027;-77
2023/03/14 02:21:21;;;;;;;16.80;9.27;;;9.50;99.90;;;;;;4972947;28;20130;-76
2023/03/14 02:23:50;;;;;;;16.75;11.50;;;9.50;99.90;;;;;;4972796;28;20114;-76
2023/03/14 02:26:26;;;;;;;12.70;8.52;;;9.50;99.90;;;;;;4972155;28;20047;-76
2023/03/14 02:28:53;;;;;;;14.43;9.25;;;9.60;99.90;;;;;;4973605;28;20125;-77
2023/03/14 02:31:21;;;;;;;12.02;7.95;;;9.60;99.90;;;;;;4979252;28;20416;-77
2023/03/14 02:33:47;;;;;;;11.65;8.20;;;9.70;99.90;;;;;;4985862;28;20034;-76
2023/03/14 02:36:14;;;;;;;12.50;7.32;;;9.80;99.90;;;;;;4973904;28;20493;-76
2023/03/14 02:38:50;;;;;;;12.65;7.40;;;9.80;99.90;;;;;;4980508;28;20199;-77
2023/03/14 02:41:16;;;;;;;13.20;8.27;;;9.90;99.90;;;;;;4981936;28;20122;-76
2023/03/14 02:43:42;;;;;;;13.93;8.05;;;9.90;99.90;;;;;;4981889;28;20160;-76
2023/03/14 02:46:12;;;;;;;11.77;7.03;;;9.90;99.90;;;;;;4982291;28;20034;-76
2023/03/14 02:48:56;;;;;;;12.80;7.78;;;10.00;99.90;;;;;;4976781;28;20038;-77
2023/03/14 02:51:23;;;;;;;12.80;7.97;;;10.10;99.90;;;;;;4983033;28;20089;-78
2023/03/14 02:53:49;;;;;;;14.35;8.23;;;9.90;99.90;;;;;;4972652;28;20033;-76
2023/03/14 02:56:14;;;;;;;17.23;8.60;;;9.90;99.90;;;;;;4970397;28;21041;-76
2023/03/14 02:58:40;;;;;;;12.07;7.18;;;9.90;99.90;;;;;;4972920;28;20114;-77
2023/03/14 03:01:06;;;;;;;13.60;7.47;;;10.00;99.90;;;;;;4971322;28;20051;-76
2023/03/14 03:03:32;;;;;;;12.90;7.90;;;9.90;99.90;;;;;;4970824;28;20039;-77
2023/03/14 03:05:59;;;;;;;11.75;7.20;;;9.90;99.90;;;;;;4973100;28;20050;-77
2023/03/14 03:08:27;;;;;;;12.52;7.95;;;9.70;99.90;;;;;;4979267;28;20034;-76
2023/03/14 03:10:53;;;;;;;13.38;8.18;;;9.80;99.90;;;;;;4983896;28;20039;-76
2023/03/14 03:13:19;;;;;;;12.65;8.68;;;9.70;99.90;;;;;;4978078;28;20034;-77
2023/03/14 03:15:45;;;;;;;10.10;7.20;;;9.70;99.90;;;;;;4983238;28;20034;-76
2023/03/14 03:18:11;;;;;;;13.52;7.80;;;9.70;99.90;;;;;;4983107;28;20377;-77
2023/03/14 03:20:37;;;;;;;13.05;8.27;;;9.60;99.90;;;;;;4980977;28;20061;-77
2023/03/14 03:23:03;;;;;;;13.73;7.25;;;9.60;99.90;;;;;;4972582;28;20082;-76
2023/03/14 03:25:29;;;;;;;12.32;8.32;;;9.60;99.90;;;;;;4971722;28;20060;-76
2023/03/14 03:27:55;;;;;;;15.93;8.57;;;9.60;99.90;;;;;;4979142;28;20031;-76
2023/03/14 03:30:21;;;;;;;14.85;8.13;;;9.40;99.90;;;;;;4983005;28;20092;-76
2023/03/14 03:32:47;;;;;;;13.18;8.32;;;9.50;99.90;;;;;;4978114;28;20042;-76
2023/03/14 03:35:13;;;;;;;14.27;8.48;;;9.60;99.90;;;;;;4978097;28;20039;-77
2023/03/14 03:37:39;;;;;;;13.35;8.93;;;9.60;99.90;;;;;;4976160;28;20026;-76
2023/03/14 03:40:05;;;;;;;14.13;8.30;;;9.50;99.90;;;;;;4977430;28;20127;-76
2023/03/14 03:42:32;;;;;;;12.75;7.63;;;9.60;99.90;;;;;;4984191;28;20038;-76
2023/03/14 03:45:00;;;;;;;11.75;8.20;;;9.70;99.90;;;;;;4970361;28;20490;-76
2023/03/14 03:47:26;;;;;;;11.55;6.97;;;9.70;99.90;;;;;;4984733;28;20503;-76
2023/03/14 03:49:52;;;;;;;12.55;7.35;;;9.70;99.90;;;;;;4974599;28;20030;-76
2023/03/14 03:52:18;;;;;;;14.32;7.65;;;9.70;99.90;;;;;;4977884;28;20117;-76
2023/03/14 03:54:43;;;;;;;11.82;7.53;;;9.70;99.90;;;;;;4984977;28;20107;-76
2023/03/14 03:57:09;;;;;;;12.90;7.22;;;9.50;99.90;;;;;;4977029;28;20070;-76
2023/03/14 03:59:35;;;;;;;12.98;7.88;;;9.60;99.90;;;;;;4976248;28;20038;-77
2023/03/14 04:02:01;;;;;;;12.20;7.88;;;9.60;99.90;;;;;;4970257;28;20093;-74
2023/03/14 04:04:26;;;;;;;12.25;7.93;;;9.60;99.90;;;;;;4973421;28;20029;-75
2023/03/14 04:06:52;;;;;;;12.55;7.50;;;9.60;99.90;;;;;;4974718;28;20063;-75
2023/03/14 04:09:18;;;;;;;12.55;7.88;;;9.70;99.90;;;;;;4974970;28;20034;-75
2023/03/14 04:11:44;;;;;;;12.52;6.93;;;9.80;99.90;;;;;;4966270;28;20030;-77
2023/03/14 04:14:09;;;;;;;10.98;7.43;;;9.70;99.90;;;;;;4976118;28;20034;-76
2023/03/14 04:16:35;;;;;;;14.20;8.00;;;9.60;99.90;;;;;;4974493;28;20034;-76
2023/03/14 04:19:02;;;;;;;14.93;7.63;;;9.80;99.90;;;;;;4977304;28;20481;-77
2023/03/14 04:21:28;;;;;;;15.27;7.82;;;9.70;99.90;;;;;;4968618;28;20702;-75
2023/03/14 04:23:53;;;;;;;17.40;8.55;;;9.70;99.90;;;;;;4973111;28;20535;-74
2023/03/14 04:26:20;;;;;;;14.07;7.93;;;9.70;99.90;;;;;;4976432;28;20070;-75
2023/03/14 04:28:45;;;;;;;14.88;8.02;;;9.70;99.90;;;;;;4972385;28;20054;-75
2023/03/14 04:31:14;;;;;;;12.55;6.97;;;9.80;99.90;;;;;;4973032;28;20142;-75
2023/03/14 04:33:40;;;;;;;11.10;6.80;;;9.70;99.90;;;;;;4976387;28;20030;-75
2023/03/14 04:36:07;;;;;;;16.95;7.85;;;9.80;99.90;;;;;;4973782;28;20034;-75
2023/03/14 04:38:33;;;;;;;14.07;6.88;;;9.80;99.90;;;;;;4970372;28;20778;-77
2023/03/14 04:40:59;;;;;;;10.45;7.30;;;9.80;99.90;;;;;;4973153;28;20113;-77
2023/03/14 04:43:25;;;;;;;11.80;7.20;;;9.90;99.90;;;;;;4976327;28;20033;-76
2023/03/14 04:45:54;;;;;;;11.80;6.75;;;9.80;99.90;;;;;;4969237;28;20104;-75
2023/03/14 04:48:20;;;;;;;13.43;8.63;;;9.80;99.90;;;;;;4978699;28;20031;-75
2023/03/14 04:50:47;;;;;;;14.80;7.95;;;9.80;99.90;;;;;;4968599;28;20125;-75
2023/03/14 04:53:13;;;;;;;12.68;7.72;;;9.70;99.90;;;;;;4977165;28;20515;-75
2023/03/14 04:55:38;;;;;;;12.07;7.88;;;9.60;99.90;;;;;;4972612;28;20040;-75
2023/03/14 04:58:04;;;;;;;12.43;7.40;;;9.60;99.90;;;;;;4975344;28;20031;-76
2023/03/14 05:00:30;;;;;;;10.93;6.95;;;9.70;99.90;;;;;;4976949;28;20046;-76
2023/03/14 05:02:55;;;;;;;15.48;7.90;;;9.60;99.90;;;;;;4967817;28;20039;-75
2023/03/14 05:05:21;;;;;;;9.57;6.63;;;9.50;99.90;;;;;;4971584;28;20042;-81
2023/03/14 05:07:47;;;;;;;13.38;6.88;;;9.60;99.90;;;;;;4964507;28;20035;-77
2023/03/14 05:10:13;;;;;;;11.13;6.63;;;9.60;99.90;;;;;;4969091;28;20053;-76
2023/03/14 05:12:38;;;;;;;9.85;6.25;;;9.60;99.90;;;;;;4964955;28;20034;-86
2023/03/14 05:15:04;;;;;;;11.82;6.72;;;9.50;99.90;;;;;;4974294;28;20062;-76
2023/03/14 05:17:32;;;;;;;8.90;5.22;;;9.60;99.90;;;;;;4972297;28;20048;-76
2023/03/14 05:19:58;;;;;;;9.77;5.55;;;9.60;99.90;;;;;;4969883;28;20109;-77
2023/03/14 05:22:24;;;;;;;10.35;5.22;;;9.60;99.90;;;;;;4981077;28;20105;-76
2023/03/14 05:24:49;;;;;;;9.52;5.65;;;9.60;99.90;;;;;;4969477;28;20045;-75
2023/03/14 05:27:15;;;;;;;8.75;5.53;;;9.60;99.90;;;;;;4977502;28;20095;-75
2023/03/14 05:29:40;;;;;;;9.95;5.70;;;9.50;99.90;;;;;;4970692;28;20427;-81
2023/03/14 05:32:06;;;;;;;9.15;4.47;;;9.50;99.90;;;;;;4977846;28;20106;-75
2023/03/14 05:34:32;;;;;;;10.98;4.35;;;9.60;99.90;;;;;;4972691;28;20607;-76
2023/03/14 05:36:57;;;;;;;8.68;5.78;;;9.70;99.90;;;;;;4977960;28;20030;-78
2023/03/14 05:39:23;;;;;;;6.90;3.85;;;9.80;99.90;;;;;;4974994;28;20034;-76
2023/03/14 05:41:50;;;;;;;8.68;4.20;;;9.80;99.90;;;;;;4977078;28;20038;-77
2023/03/14 05:44:15;;;;;;;6.32;4.00;;;9.90;99.90;;;;;;4982464;28;20076;-82
2023/03/14 05:46:41;;;;;;;10.38;4.35;;;10.00;99.90;;;;;;4971162;28;20043;-76
2023/03/14 05:49:07;;;;;;;7.10;4.28;;;9.80;99.90;;;;;;4969233;28;20729;-80
2023/03/14 05:51:32;;;;;;;9.02;4.30;;;9.70;99.90;;;;;;4979536;28;20030;-76
2023/03/14 05:53:58;;;;;;;9.57;3.90;;;9.70;99.90;;;;;;4972234;28;20030;-75
2023/03/14 05:56:24;;;;;;;6.85;4.57;;;9.70;99.90;;;;;;4969882;28;20037;-79
2023/03/14 05:58:49;;;;;;;6.03;3.60;;;9.70;99.90;;;;;;4975739;28;20037;-81
2023/03/14 06:01:15;;;;;;;10.30;3.80;;;9.70;99.90;;;;;;4979120;28;20076;-76
2023/03/14 06:03:41;;;;;;;7.38;4.13;;;9.60;99.90;;;;;;4969351;28;20031;-76
2023/03/14 06:06:06;;;;;;;7.03;3.80;;;9.60;99.90;;;;;;4975295;28;20405;-77
2023/03/14 06:08:34;;;;;;;7.55;3.60;;;9.60;99.90;;;;;;4967016;28;20601;-78
2023/03/14 06:11:02;;;;;;;6.57;3.90;;;9.60;99.90;;;;;;4971371;28;20057;-75
2023/03/14 06:13:27;;;;;;;6.57;3.53;;;9.60;99.90;;;;;;4974148;28;20042;-76
2023/03/14 06:15:53;;;;;;;9.13;2.95;;;9.60;99.90;;;;;;4974452;28;20027;-76
2023/03/14 06:18:19;;;;;;;8.32;3.45;;;9.80;99.90;;;;;;4976899;28;20088;-76
2023/03/14 06:20:45;;;;;;;9.50;3.28;;;9.70;99.90;;;;;;4979286;28;20076;-76
2023/03/14 06:23:10;;;;;;;5.13;2.90;;;9.80;99.90;;;;;;4981795;28;20792;-75
2023/03/14 06:25:37;;;;;;;5.80;3.30;;;9.90;99.90;;;;;;4989671;28;20482;-79
2023/03/14 06:28:03;;;;;;;6.30;2.85;;;9.80;99.90;;;;;;4972916;28;20793;-75
2023/03/14 06:30:28;;;;;;;6.18;2.88;;;9.80;99.90;;;;;;4974397;28;20023;-76
2023/03/14 06:32:55;;;;;;;5.95;2.35;;;9.80;99.90;;;;;;4970856;28;20038;-75
2023/03/14 06:35:21;;;;;;;4.00;1.90;;;9.80;99.90;;;;;;4969273;28;20026;-75
2023/03/14 06:37:47;;;;;;;3.80;1.88;;;9.90;99.90;;;;;;4976905;28;20515;-77
2023/03/14 06:40:16;;;;;;;5.18;1.98;;;9.90;99.90;;;;;;4973636;28;20030;-78
2023/03/14 06:42:43;;;;;;;4.57;1.98;;;9.80;99.90;;;;;;4975023;28;20026;-76
2023/03/14 06:45:09;;;;;;;5.18;1.90;;;9.90;99.90;;;;;;4982202;28;20077;-76
2023/03/14 06:47:35;;;;;;;3.67;1.70;;;10.00;99.90;;;;;;4988033;28;20038;-78
2023/03/14 06:50:01;;;;;;;3.35;1.45;;;10.00;99.90;;;;;;4987823;28;20515;-79
2023/03/14 06:52:26;;;;;;;4.97;1.50;;;10.00;99.90;;;;;;4972571;28;20172;-81
2023/03/14 06:54:52;;;;;;;4.55;1.67;;;9.90;99.90;;;;;;4969658;28;20034;-78
2023/03/14 06:57:18;;;;;;;3.40;1.70;;;10.00;99.90;;;;;;4967455;28;20038;-83
2023/03/14 06:59:43;;;;;;;5.03;1.70;;;10.00;99.90;;;;;;4969009;28;20077;-79
2023/03/14 07:02:12;;;;;;;4.05;1.48;;;10.00;99.90;;;;;;4975881;28;20057;-78
2023/03/14 07:04:38;;;;;;;4.32;1.58;;;9.90;99.90;;;;;;4972033;28;20158;-80
2023/03/14 07:07:04;;;;;;;4.43;1.83;;;10.00;99.90;;;;;;4974464;28;20112;-79
2023/03/14 07:09:31;;;;;;;4.28;1.60;;;10.00;99.90;;;;;;4969257;28;20026;-78
2023/03/14 07:11:56;;;;;;;4.20;1.98;;;10.00;99.90;;;;;;4973562;28;20037;-78
2023/03/14 07:14:22;;;;;;;4.70;2.50;;;9.90;99.90;;;;;;4975481;28;20027;-79
2023/03/14 07:16:48;;;;;;;6.57;2.72;;;10.00;99.90;;;;;;4966530;28;20041;-81
2023/03/14 07:19:13;;;;;;;5.03;2.42;;;10.00;99.90;;;;;;4980281;28;20129;-79
2023/03/14 07:21:39;;;;;;;3.55;1.90;;;10.10;99.90;;;;;;4973545;28;20054;-80
2023/03/14 07:24:05;;;;;;;2.63;1.30;;;10.00;99.90;;;;;;4967485;28;20026;-82
2023/03/14 07:26:31;;;;;;;4.57;1.88;;;10.00;99.90;;;;;;4968558;28;20041;-77
2023/03/14 07:28:56;;;;;;;3.72;1.40;;;10.00;99.90;;;;;;4982951;28;20030;-78
2023/03/14 07:31:22;;;;;;;4.55;1.75;;;9.90;99.90;;;;;;4968744;28;20026;-79
2023/03/14 07:33:48;;;;;;;2.75;1.05;;;9.90;99.90;;;;;;4974743;28;20069;-78
2023/03/14 07:36:14;;;;;;;1.98;1.20;;;10.10;99.90;;;;;;4975275;28;20034;-78
2023/03/14 07:38:39;;;;;;;4.43;1.60;;;10.00;99.90;;;;;;4970808;28;20041;-78
2023/03/14 07:41:06;;;;;;;3.85;1.73;;;10.00;99.90;;;;;;4971650;28;20034;-78
2023/03/14 07:43:32;;;;;;;3.55;1.63;;;10.00;99.90;;;;;;4976181;28;20030;-78
2023/03/14 07:45:58;;;;;;;6.50;2.63;;;10.20;99.90;;;;;;4980625;28;20551;-78
2023/03/14 07:48:26;;;;;;;3.55;1.60;;;10.40;99.90;;;;;;4976177;28;20026;-78
2023/03/14 07:50:52;;;;;;;5.32;1.40;;;10.30;99.90;;;;;;4969457;28;20489;-78
2023/03/14 07:53:18;;;;;;;3.55;1.55;;;10.10;99.90;;;;;;4976121;28;20026;-78
2023/03/14 07:55:45;;;;;;;5.90;2.13;;;10.30;99.90;;;;;;4985215;28;20023;-78
2023/03/14 07:58:11;;;;;;;4.47;1.20;;;10.50;99.90;;;;;;4978918;28;20026;-78
2023/03/14 08:00:36;;;;;;;2.22;0.80;;;10.50;99.90;;;;;;4977178;28;20057;-78
2023/03/14 08:03:02;;;;;;;1.52;0.60;;;10.40;99.90;;;;;;4976408;28;20035;-78
2023/03/14 08:05:28;;;;;;;2.97;0.90;;;10.20;99.90;;;;;;4979652;28;20030;-78
2023/03/14 08:07:53;;;;;;;2.67;1.08;;;10.00;99.90;;;;;;4976306;28;20031;-78
2023/03/14 08:10:22;;;;;;;2.80;1.25;;;9.80;99.90;;;;;;4971766;28;20034;-78
2023/03/14 08:12:54;;;;;;;2.00;0.88;;;9.80;99.90;;;;;;4970670;28;20050;-79
2023/03/14 08:15:19;;;;;;;1.90;1.02;;;9.80;99.90;;;;;;4972542;28;20042;-78
2023/03/14 08:17:50;;;;;;;1.88;0.70;;;9.80;99.90;;;;;;4977730;28;20034;-78
2023/03/14 08:20:20;;;;;;;1.85;0.65;;;10.10;99.90;;;;;;4972371;28;20039;-78
2023/03/14 08:22:45;;;;;;;2.97;0.80;;;10.20;99.90;;;;;;4976145;28;20030;-77
2023/03/14 08:25:11;;;;;;;2.10;0.90;;;10.40;99.90;;;;;;4968034;28;20058;-77
2023/03/14 08:27:38;;;;;;;1.58;0.80;;;10.20;99.90;;;;;;4975317;28;20053;-78
2023/03/14 08:30:09;;;;;;;2.47;1.15;;;10.20;99.90;;;;;;4966187;28;20027;-75
2023/03/14 08:32:35;;;;;;;1.55;0.68;;;10.20;99.90;;;;;;4977390;28;20047;-76
2023/03/14 08:35:01;;;;;;;2.22;0.80;;;10.30;99.90;;;;;;4965262;28;20363;-76
2023/03/14 08:37:27;;;;;;;2.15;0.82;;;10.30;99.90;;;;;;4966159;28;20023;-75
2023/03/14 08:39:53;;;;;;;3.20;1.73;;;10.20;99.90;;;;;;4972307;28;20153;-74
2023/03/14 08:42:19;;;;;;;1.98;1.05;;;10.20;99.90;;;;;;4979611;28;20030;-76
2023/03/14 08:44:45;;;;;;;2.58;1.08;;;10.20;99.90;;;;;;4967066;28;20046;-74
2023/03/14 08:47:10;;;;;;;2.45;0.90;;;10.30;99.90;;;;;;4975121;28;20374;-73
2023/03/14 08:49:36;;;;;;;1.90;0.88;;;10.50;99.90;;;;;;4972926;28;20077;-74
2023/03/14 08:52:03;;;;;;;2.90;1.50;;;10.50;99.90;;;;;;4969333;28;20142;-76
2023/03/14 08:54:29;;;;;;;1.98;0.73;;;10.50;99.90;;;;;;4971621;28;20524;-76
2023/03/14 08:56:55;;;;;;;1.55;0.60;;;10.60;99.90;;;;;;4970505;28;20147;-76
2023/03/14 08:59:20;;;;;;;1.52;0.68;;;10.60;99.90;;;;;;4978467;28;20041;-76
2023/03/14 09:01:46;;;;;;;2.38;0.68;;;10.80;99.90;;;;;;4984207;28;20062;-76
2023/03/14 09:04:12;;;;;;;2.28;0.50;;;10.90;99.90;;;;;;4975059;28;20454;-77
2023/03/14 09:06:37;;;;;;;1.50;0.68;;;11.00;99.90;;;;;;4971703;28;20449;-76
2023/03/14 09:09:03;;;;;;;3.15;0.68;;;11.20;99.90;;;;;;4964309;28;20031;-77
2023/03/14 09:11:29;;;;;;;1.48;0.80;;;11.30;99.90;;;;;;4973242;28;20048;-77
2023/03/14 09:13:54;;;;;;;2.45;0.68;;;11.30;99.90;;;;;;4977587;28;20030;-77
2023/03/14 09:16:20;;;;;;;1.77;0.98;;;11.50;99.90;;;;;;4980810;28;20062;-78
2023/03/14 09:18:46;;;;;;;12.43;1.70;;;11.70;99.90;;;;;;4965100;28;20129;-78
2023/03/14 09:21:12;;;;;;;5.45;1.20;;;11.90;99.90;;;;;;4972140;28;20030;-77
2023/03/14 09:23:38;;;;;;;4.07;0.90;;;11.90;99.90;;;;;;4969148;28;20116;-79
2023/03/14 09:26:04;;;;;;;9.95;5.70;;;11.80;99.90;;;;;;4974837;28;20045;-80
2023/03/14 09:28:30;;;;;;;10.05;4.43;;;11.90;99.90;;;;;;4975252;28;20038;-78
2023/03/14 09:30:56;;;;;;;2.35;1.00;;;12.30;99.90;;;;;;4968373;28;20031;-79
2023/03/14 09:33:22;;;;;;;2.63;1.30;;;12.10;99.90;;;;;;4967700;28;20037;-77
2023/03/14 09:35:48;;;;;;;2.22;1.08;;;12.20;99.90;;;;;;4977173;28;20041;-78
2023/03/14 09:38:13;;;;;;;2.40;1.25;;;12.30;99.90;;;;;;4974396;28;20035;-79
2023/03/14 09:40:39;;;;;;;3.03;1.73;;;12.50;99.90;;;;;;4979379;28;20034;-79
2023/03/14 09:43:05;;;;;;;2.40;1.23;;;12.80;99.90;;;;;;4972906;28;20068;-78
2023/03/14 09:45:39;;;;;;;2.67;1.10;;;13.10;99.90;;;;;;4977611;28;20366;-79
2023/03/14 09:48:06;;;;;;;1.60;0.98;;;13.20;99.90;;;;;;4968208;28;20027;-79
2023/03/14 09:50:38;;;;;;;4.13;1.50;;;13.30;99.90;;;;;;4964963;28;20946;-79
2023/03/14 09:53:12;;;;;;;3.08;1.20;;;13.20;99.90;;;;;;4971078;28;20109;-79
2023/03/14 09:55:39;;;;;;;2.55;1.00;;;12.90;99.90;;;;;;4965815;28;20031;-80
2023/03/14 09:58:11;;;;;;;2.72;1.17;;;13.00;99.90;;;;;;4971243;28;20142;-81
2023/03/14 10:00:37;;;;;;;1.90;1.02;;;13.00;99.90;;;;;;4973305;28;20058;-81
2023/03/14 10:03:11;;;;;;;2.75;1.13;;;13.00;99.90;;;;;;4976789;28;20022;-80
2023/03/14 10:05:38;;;;;;;4.25;1.48;;;13.10;99.90;;;;;;4964933;28;20445;-80
2023/03/14 10:08:04;;;;;;;4.18;1.88;;;13.20;99.90;;;;;;4975834;28;20022;-80
2023/03/14 10:10:30;;;;;;;3.92;1.95;;;13.40;99.90;;;;;;4974487;28;20052;-76
2023/03/14 10:13:13;;;;;;;4.68;1.65;;;13.40;99.90;;;;;;4975237;28;20500;-80
2023/03/14 10:15:38;;;;;;;2.90;1.33;;;13.50;99.90;;;;;;4979969;28;20092;-77
2023/03/14 10:18:14;;;;;;;3.13;1.23;;;13.60;99.90;;;;;;4984884;28;20022;-77
2023/03/14 10:20:43;;;;;;;3.00;1.20;;;13.70;99.90;;;;;;4980155;28;20054;-77
2023/03/14 10:23:12;;;;;;;3.67;1.55;;;14.00;99.90;;;;;;4980362;28;20109;-77
2023/03/14 10:25:40;;;;;;;3.33;1.50;;;14.20;99.90;;;;;;4968717;28;20486;-77
2023/03/14 10:28:26;;;;;;;4.07;1.75;;;14.00;99.90;;;;;;4968594;28;20035;-77
2023/03/14 10:30:52;;;;;;;3.22;1.52;;;14.10;99.90;;;;;;4985491;28;20650;-77
2023/03/14 10:33:17;;;;;;;3.13;1.73;;;14.30;99.90;;;;;;4984790;28;20035;-77
2023/03/14 10:35:44;;;;;;;3.20;1.63;;;14.40;99.90;;;;;;4972567;28;20026;-77
2023/03/14 10:38:17;;;;;;;2.92;1.02;;;14.40;99.90;;;;;;4985451;28;20026;-77
2023/03/14 10:40:52;;;;;;;2.50;1.17;;;14.50;99.90;;;;;;4968397;28;20374;-77
2023/03/14 10:43:26;;;;;;;3.42;1.38;;;14.60;99.90;;;;;;4975508;28;20043;-77
2023/03/14 10:46:19;;;;;;;4.43;1.30;;;14.50;99.90;;;;;;4978620;28;20046;-77
2023/03/14 10:48:46;;;;;;;2.55;1.10;;;14.50;99.90;;;;;;4973372;28;20138;-77
2023/03/14 10:51:17;;;;;;;4.28;1.35;;;14.70;99.90;;;;;;4979736;28;20042;-77
2023/03/14 10:53:48;;;;;;;2.13;1.02;;;14.60;99.90;;;;;;4976938;28;20030;-77
2023/03/14 10:56:18;;;;;;;3.97;1.75;;;14.70;99.90;;;;;;4977291;28;20046;-77
2023/03/14 10:58:46;;;;;;;2.75;1.17;;;15.00;99.90;;;;;;4968463;28;20097;-77
2023/03/14 11:01:34;;;;;;;4.13;1.30;;;15.00;99.90;;;;;;4967290;28;20090;-80
2023/03/14 11:04:08;;;;;;;3.60;1.65;;;15.30;99.90;;;;;;4966235;28;20057;-77
2023/03/14 11:06:40;;;;;;;;;;;15.20;99.90;;;;;;4969387;28;20035;-77
2023/03/14 11:09:17;;;;;;;2.42;1.08;;;15.40;99.90;;;;;;4978459;28;19985;-78
2023/03/14 11:11:47;;;;;;;2.92;1.13;;;15.20;99.60;;;;;;4970358;28;20026;-78
2023/03/14 11:14:12;;;;;;;3.45;1.15;;;15.50;99.80;;;;;;4982332;28;20125;-77
2023/03/14 11:17:09;;;;;;;2.97;1.27;;;15.40;99.20;;;;;;4976814;28;20508;-78
2023/03/14 11:20:09;;;;;;;4.05;1.60;;;15.70;99.90;;;;;;4971659;28;20476;-78
2023/03/14 11:23:06;;;;;;;2.78;1.33;;;15.90;99.90;;;;;;4951915;28;20046;-78
2023/03/14 11:25:44;;;;;;;3.78;1.55;;;15.90;99.30;;;;;;4930719;28;21107;-78
2023/03/14 11:28:25;;;;;;;1.75;0.98;;;16.00;99.40;;;;;;4973154;28;20051;-78
2023/03/14 11:31:02;;;;;;;4.13;1.55;;;16.20;99.10;;;;;;4966713;28;20035;-77
2023/03/14 11:33:38;;;;;;;3.75;1.88;;;15.90;99.40;;;;;;4969738;28;20590;-77
2023/03/14 11:36:17;;;;;;;2.38;1.25;;;16.00;99.90;;;;;;4976081;28;20035;-77
2023/03/14 11:38:46;;;;;;;2.95;1.48;;;16.00;99.60;;;;;;4972265;28;20087;-77
2023/03/14 11:41:20;;;;;;;3.10;1.30;;;16.20;99.70;;;;;;4977309;28;20031;-78
2023/03/14 11:43:55;;;;;;;3.53;1.42;;;16.30;99.60;;;;;;4983395;28;20026;-77
2023/03/14 11:46:30;;;;;;;3.03;1.13;;;16.10;99.40;;;;;;4974848;28;20541;-78
2023/03/14 11:49:22;;;;;;;1.48;0.90;;;16.40;99.40;;;;;;4966359;28;20109;-78
2023/03/14 11:51:53;;;;;;;3.75;1.50;;;16.50;98.70;;;;;;4985065;28;20027;-77
2023/03/14 11:54:35;;;;;;;3.10;1.15;;;16.60;98.90;;;;;;4970181;28;20033;-77
2023/03/14 11:57:11;;;;;;;2.65;1.35;;;16.30;99.00;;;;;;4969045;28;20027;-78
2023/03/14 11:59:56;;;;;;;2.85;1.20;;;15.90;99.20;;;;;;4972989;28;20065;-77
2023/03/14 12:02:30;;;;;;;3.35;1.17;;;15.70;99.10;;;;;;4969466;28;20042;-77
2023/03/14 12:05:14;;;;;;;2.97;1.33;;;15.70;99.20;;;;;;4964840;28;20182;-77
2023/03/14 12:08:00;;;;;;;3.00;1.00;;;15.90;98.50;;;;;;4981383;28;20064;-77
2023/03/14 12:10:27;;;;;;;3.05;1.63;;;16.00;98.50;;;;;;4974690;28;20045;-77
2023/03/14 12:12:52;;;;;;;2.70;0.85;;;15.70;98.50;;;;;;4965750;28;20701;-77
2023/03/14 12:15:21;;;;;;;2.67;0.93;;;15.80;98.90;;;;;;4965532;28;20027;-77
2023/03/14 12:17:54;;;;;;;3.92;1.40;;;16.00;99.10;;;;;;4974385;28;20034;-78
2023/03/14 12:20:25;;;;;;;4.32;1.70;;;15.50;99.90;;;;;;4972867;28;20149;-77
2023/03/14 12:22:58;;;;;;;4.57;1.23;;;15.50;99.90;;;;;;4976274;28;20101;-77
2023/03/14 12:25:29;;;;;;;7.03;2.40;;;15.30;99.50;;;;;;4965191;28;20045;-78
2023/03/14 12:27:55;;;;;;;8.80;2.70;;;14.90;99.90;;;;;;4973416;28;20682;-75
2023/03/14 12:30:30;;;;;;;5.13;2.50;;;14.90;99.90;;;;;;4965927;28;20058;-78
2023/03/14 12:33:10;;;;;;;5.72;2.20;;;14.80;99.90;;;;;;4965945;28;20454;-77
2023/03/14 12:35:38;;;;;;;2.17;0.90;;;14.70;99.90;;;;;;4965680;28;20038;-78
2023/03/14 12:38:13;;;;;;;2.47;1.20;;;15.00;99.80;;;;;;4975870;28;20038;-77
2023/03/14 12:41:08;;;;;;;3.13;1.10;;;15.20;99.50;;;;;;4972986;28;20445;-77
2023/03/14 12:43:35;;;;;;;3.30;1.60;;;15.00;99.60;;;;;;4967950;28;20030;-77
2023/03/14 12:46:07;;;;;;;1.27;0.65;;;14.90;99.60;;;;;;4973572;28;20023;-78
2023/03/14 12:48:32;;;;;;;2.28;1.00;;;15.00;99.60;;;;;;4965843;28;20037;-77
2023/03/14 12:51:04;;;;;;;2.05;0.90;;;15.10;99.90;;;;;;4972708;28;20043;-77